createdAt,value
2019-03-16T00:00:02.826Z,7.30
2019-03-16T00:02:33.096Z,7.30
2019-03-16T00:05:01.518Z,7.40
2019-03-16T00:07:33.232Z,7.40
2019-03-16T00:10:01.146Z,7.40
2019-03-16T00:12:29.695Z,7.40
2019-03-16T00:14:58.172Z,7.50
2019-03-16T00:17:26.961Z,7.40
2019-03-16T00:19:55.362Z,7.30
2019-03-16T00:22:23.770Z,7.30
2019-03-16T00:24:52.190Z,7.20
2019-03-16T00:27:20.771Z,7.30
2019-03-16T00:29:49.270Z,7.30
2019-03-16T00:32:17.794Z,7.30
2019-03-16T00:34:46.287Z,7.40
2019-03-16T00:37:14.804Z,7.30
2019-03-16T00:39:43.341Z,7.30
2019-03-16T00:42:11.848Z,7.40
2019-03-16T00:44:42.119Z,7.30
2019-03-16T00:47:10.757Z,7.40
2019-03-16T00:49:39.414Z,7.40
2019-03-16T00:52:07.883Z,7.40
2019-03-16T00:54:36.422Z,7.30
2019-03-16T00:57:04.901Z,7.40
2019-03-16T00:59:33.418Z,7.30
2019-03-16T01:02:03.654Z,7.30
2019-03-16T01:04:32.045Z,7.30
2019-03-16T01:07:01.490Z,7.20
2019-03-16T01:09:29.996Z,7.30
2019-03-16T01:11:58.902Z,7.30
2019-03-16T01:14:27.322Z,7.20
2019-03-16T01:16:55.915Z,7.30
2019-03-16T01:19:24.305Z,7.10
2019-03-16T01:21:52.730Z,7.00
2019-03-16T01:24:21.152Z,7.00
2019-03-16T01:26:49.760Z,7.10
2019-03-16T01:29:18.167Z,7.20
2019-03-16T01:31:46.657Z,7.20
2019-03-16T01:34:15.219Z,7.10
2019-03-16T01:36:43.714Z,7.10
2019-03-16T01:39:12.213Z,7.10
2019-03-16T01:41:42.456Z,7.00
2019-03-16T01:44:11.146Z,7.00
2019-03-16T01:46:39.642Z,7.00
2019-03-16T01:49:08.050Z,6.90
2019-03-16T01:51:38.247Z,6.90
2019-03-16T01:54:06.668Z,6.90
2019-03-16T01:56:35.275Z,7.00
2019-03-16T01:59:03.994Z,6.90
2019-03-16T02:01:34.215Z,6.50
2019-03-16T02:04:02.729Z,6.60
2019-03-16T02:06:31.178Z,6.70
2019-03-16T02:08:59.587Z,6.80
2019-03-16T02:11:28.150Z,6.90
2019-03-16T02:13:56.639Z,6.60
2019-03-16T02:16:25.223Z,6.60
2019-03-16T02:18:53.737Z,6.80
2019-03-16T02:21:22.149Z,6.90
2019-03-16T02:23:51.592Z,6.80
2019-03-16T02:26:20.052Z,6.80
2019-03-16T02:28:49.031Z,6.70
2019-03-16T02:31:17.424Z,6.80
2019-03-16T02:33:45.972Z,6.60
2019-03-16T02:36:14.413Z,6.30
2019-03-16T02:38:42.909Z,6.50
2019-03-16T02:41:11.336Z,6.70
2019-03-16T02:43:39.869Z,6.90
2019-03-16T02:46:08.263Z,7.00
2019-03-16T02:48:36.678Z,7.00
2019-03-16T02:51:05.063Z,6.90
2019-03-16T02:53:33.586Z,6.80
2019-03-16T02:56:01.984Z,6.70
2019-03-16T02:58:30.545Z,6.60
2019-03-16T03:00:59.068Z,6.60
2019-03-16T03:03:29.588Z,6.70
2019-03-16T03:05:57.826Z,6.80
2019-03-16T03:08:26.294Z,6.60
2019-03-16T03:10:56.511Z,6.70
2019-03-16T03:13:27.854Z,6.50
2019-03-16T03:15:56.262Z,6.50
2019-03-16T03:18:24.718Z,6.80
2019-03-16T03:20:53.252Z,6.90
2019-03-16T03:23:21.656Z,7.00
2019-03-16T03:25:50.043Z,6.90
2019-03-16T03:28:18.652Z,6.90
2019-03-16T03:30:47.035Z,7.00
2019-03-16T03:33:16.252Z,7.00
2019-03-16T03:35:44.735Z,7.00
2019-03-16T03:38:13.372Z,6.80
2019-03-16T03:40:42.086Z,6.70
2019-03-16T03:43:10.797Z,6.80
2019-03-16T03:45:39.267Z,6.70
2019-03-16T03:48:07.782Z,6.10
2019-03-16T03:50:37.315Z,6.00
2019-03-16T03:53:05.920Z,6.30
2019-03-16T03:55:34.537Z,6.50
2019-03-16T03:58:03.136Z,6.50
2019-03-16T04:00:31.745Z,6.70
2019-03-16T04:03:00.171Z,6.10
2019-03-16T04:05:28.683Z,6.00
2019-03-16T04:07:57.110Z,6.10
2019-03-16T04:10:25.637Z,6.30
2019-03-16T04:13:01.564Z,6.20
2019-03-16T04:15:31.007Z,6.20
2019-03-16T04:17:59.591Z,6.50
2019-03-16T04:20:28.092Z,6.80
2019-03-16T04:22:56.508Z,6.80
2019-03-16T04:25:24.932Z,6.80
2019-03-16T04:27:53.966Z,6.70
2019-03-16T04:30:22.353Z,6.80
2019-03-16T04:32:50.877Z,7.00
2019-03-16T04:35:19.263Z,7.10
2019-03-16T04:37:47.813Z,7.10
2019-03-16T04:40:16.243Z,7.10
2019-03-16T04:42:50.363Z,7.20
2019-03-16T04:45:19.442Z,7.20
2019-03-16T04:47:47.986Z,7.20
2019-03-16T04:50:16.401Z,7.20
2019-03-16T04:52:44.884Z,7.10
2019-03-16T04:55:13.302Z,7.10
2019-03-16T04:57:41.758Z,7.10
2019-03-16T05:00:10.391Z,7.10
2019-03-16T05:02:39.702Z,7.10
2019-03-16T05:05:08.161Z,7.10
2019-03-16T05:07:36.827Z,7.20
2019-03-16T05:10:07.244Z,7.30
2019-03-16T05:12:35.717Z,7.40
2019-03-16T05:15:04.859Z,7.50
2019-03-16T05:17:33.564Z,7.50
2019-03-16T05:20:04.012Z,7.50
2019-03-16T05:22:32.523Z,7.50
2019-03-16T05:25:01.020Z,7.30
2019-03-16T05:27:29.783Z,7.40
2019-03-16T05:29:58.750Z,7.40
2019-03-16T05:32:27.262Z,7.40
2019-03-16T05:34:57.898Z,7.50
2019-03-16T05:37:26.496Z,7.60
2019-03-16T05:39:55.000Z,7.70
2019-03-16T05:42:23.529Z,7.60
2019-03-16T05:44:52.273Z,7.60
2019-03-16T05:47:21.272Z,7.70
2019-03-16T05:49:49.744Z,7.70
2019-03-16T05:52:18.262Z,7.80
2019-03-16T05:54:46.830Z,7.70
2019-03-16T05:57:15.351Z,7.80
2019-03-16T05:59:45.547Z,7.70
2019-03-16T06:02:15.788Z,7.80
2019-03-16T06:04:44.291Z,7.90
2019-03-16T06:07:13.859Z,8.00
2019-03-16T06:09:42.288Z,8.00
2019-03-16T06:12:10.848Z,7.90
2019-03-16T06:14:39.288Z,7.90
2019-03-16T06:17:08.308Z,8.10
2019-03-16T06:19:36.694Z,8.10
2019-03-16T06:22:05.208Z,8.20
2019-03-16T06:24:33.717Z,8.00
2019-03-16T06:27:02.167Z,8.00
2019-03-16T06:29:30.650Z,8.00
2019-03-16T06:31:59.577Z,8.20
2019-03-16T06:34:28.288Z,8.20
2019-03-16T06:36:57.060Z,8.30
2019-03-16T06:39:26.472Z,8.30
2019-03-16T06:41:55.017Z,8.30
2019-03-16T06:44:23.481Z,8.30
2019-03-16T06:46:52.646Z,8.20
2019-03-16T06:49:21.349Z,8.30
2019-03-16T06:51:52.170Z,8.40
2019-03-16T06:54:21.991Z,8.60
2019-03-16T06:56:50.512Z,8.70
2019-03-16T06:59:18.931Z,8.70
2019-03-16T07:01:47.542Z,8.80
2019-03-16T07:04:16.162Z,8.90
2019-03-16T07:06:46.818Z,8.90
2019-03-16T07:09:15.754Z,8.90
2019-03-16T07:11:44.334Z,9.00
2019-03-16T07:14:13.046Z,9.10
2019-03-16T07:16:42.375Z,9.10
2019-03-16T07:19:10.889Z,9.20
2019-03-16T07:21:39.619Z,9.20
2019-03-16T07:24:08.146Z,9.30
2019-03-16T07:26:36.792Z,9.40
2019-03-16T07:29:05.344Z,9.40
2019-03-16T07:31:33.924Z,9.40
2019-03-16T07:34:02.839Z,9.50
2019-03-16T07:36:31.538Z,9.50
2019-03-16T07:39:00.229Z,9.60
2019-03-16T07:41:29.045Z,9.60
2019-03-16T07:44:01.800Z,9.60
2019-03-16T07:46:30.771Z,9.60
2019-03-16T07:48:59.316Z,9.70
2019-03-16T07:51:29.312Z,9.70
2019-03-16T07:53:57.827Z,9.70
2019-03-16T07:56:26.635Z,9.80
2019-03-16T07:58:56.964Z,9.80
2019-03-16T08:01:25.660Z,9.80
2019-03-16T08:03:55.871Z,9.80
2019-03-16T08:06:25.022Z,9.80
2019-03-16T08:08:53.466Z,9.70
2019-03-16T08:11:21.970Z,9.80
2019-03-16T08:13:51.389Z,9.80
2019-03-16T08:16:19.945Z,9.90
2019-03-16T08:18:48.565Z,10.00
2019-03-16T08:21:17.409Z,10.00
2019-03-16T08:23:47.757Z,10.10
2019-03-16T08:26:18.071Z,10.00
2019-03-16T08:28:46.626Z,9.90
2019-03-16T08:31:15.207Z,9.90
2019-03-16T08:33:44.627Z,9.80
2019-03-16T08:36:13.762Z,9.80
2019-03-16T08:38:42.356Z,9.80
2019-03-16T08:41:10.944Z,9.70
2019-03-16T08:43:40.380Z,9.80
2019-03-16T08:46:09.146Z,9.90
2019-03-16T08:48:37.675Z,9.90
2019-03-16T08:51:06.227Z,9.90
2019-03-16T08:53:34.690Z,10.10
2019-03-16T08:56:04.210Z,10.10
2019-03-16T08:58:34.705Z,10.20
2019-03-16T09:01:03.957Z,10.20
2019-03-16T09:03:43.114Z,10.20
2019-03-16T09:06:05.583Z,10.30
2019-03-16T09:08:34.479Z,10.40
2019-03-16T09:11:03.167Z,10.30
2019-03-16T09:13:31.725Z,10.30
2019-03-16T09:16:00.320Z,10.20
2019-03-16T09:18:28.963Z,10.20
2019-03-16T09:20:57.496Z,10.30
2019-03-16T09:23:25.939Z,10.40
2019-03-16T09:25:56.064Z,10.50
2019-03-16T09:28:24.631Z,10.60
2019-03-16T09:30:56.410Z,10.60
2019-03-16T09:33:24.120Z,10.70
2019-03-16T09:35:53.145Z,10.70
2019-03-16T09:38:21.988Z,10.70
2019-03-16T09:40:50.584Z,10.80
2019-03-16T09:43:19.225Z,10.90
2019-03-16T09:45:49.489Z,10.90
2019-03-16T09:48:18.039Z,11.00
2019-03-16T09:50:47.021Z,11.00
2019-03-16T09:53:15.945Z,11.10
2019-03-16T09:55:44.590Z,11.20
2019-03-16T09:58:13.375Z,11.20
2019-03-16T10:00:41.942Z,11.20
2019-03-16T10:03:10.557Z,11.30
2019-03-16T10:05:39.169Z,11.30
2019-03-16T10:08:07.661Z,11.40
2019-03-16T10:10:36.484Z,11.50
2019-03-16T10:13:09.388Z,11.50
2019-03-16T10:15:40.171Z,11.50
2019-03-16T10:18:08.696Z,11.60
2019-03-16T10:20:37.309Z,11.70
2019-03-16T10:23:05.921Z,11.70
2019-03-16T10:25:34.321Z,11.70
2019-03-16T10:28:03.033Z,11.70
2019-03-16T10:30:31.559Z,11.70
2019-03-16T10:33:00.371Z,11.80
2019-03-16T10:35:29.288Z,11.80
2019-03-16T10:37:57.965Z,11.90
2019-03-16T10:40:26.995Z,11.90
2019-03-16T10:43:04.131Z,11.90
2019-03-16T10:45:32.743Z,11.90
2019-03-16T10:48:01.178Z,12.00
2019-03-16T10:50:30.016Z,12.10
2019-03-16T10:52:58.634Z,12.00
2019-03-16T10:55:27.340Z,11.80
2019-03-16T10:57:57.758Z,11.70
2019-03-16T11:00:26.548Z,11.70
2019-03-16T11:02:55.213Z,11.70
2019-03-16T11:05:24.320Z,11.70
2019-03-16T11:07:53.371Z,11.80
2019-03-16T11:10:24.188Z,11.70
2019-03-16T11:12:53.114Z,11.80
2019-03-16T11:15:22.051Z,11.90
2019-03-16T11:17:50.792Z,11.90
2019-03-16T11:20:19.477Z,11.80
2019-03-16T11:22:48.137Z,11.80
2019-03-16T11:25:16.723Z,11.80
2019-03-16T11:27:45.236Z,11.70
2019-03-16T11:30:15.672Z,11.80
2019-03-16T11:32:44.339Z,11.90
2019-03-16T11:35:12.814Z,12.00
2019-03-16T11:37:43.107Z,12.00
2019-03-16T11:40:13.023Z,12.00
2019-03-16T11:42:41.841Z,12.10
2019-03-16T11:45:10.977Z,12.20
2019-03-16T11:47:41.368Z,12.20
2019-03-16T11:50:10.364Z,12.30
2019-03-16T11:52:39.039Z,12.30
2019-03-16T11:55:09.368Z,12.50
2019-03-16T11:57:38.352Z,12.60
2019-03-16T12:00:08.036Z,13.00
2019-03-16T12:02:39.514Z,13.30
2019-03-16T12:05:08.922Z,13.80
2019-03-16T12:07:37.598Z,14.40
2019-03-16T12:10:07.701Z,14.90
2019-03-16T12:12:36.507Z,15.20
2019-03-16T12:15:06.472Z,15.40
2019-03-16T12:17:35.155Z,15.60
2019-03-16T12:20:05.514Z,16.20
2019-03-16T12:22:34.104Z,16.60
2019-03-16T12:25:04.629Z,16.90
2019-03-16T12:27:33.304Z,16.90
2019-03-16T12:30:05.620Z,17.00
2019-03-16T12:32:35.903Z,17.20
2019-03-16T12:35:05.569Z,17.30
2019-03-16T12:37:34.196Z,17.40
2019-03-16T12:40:05.235Z,17.90
2019-03-16T12:42:33.996Z,18.20
2019-03-16T12:45:02.785Z,18.30
2019-03-16T12:47:33.741Z,18.40
2019-03-16T12:50:02.509Z,18.80
2019-03-16T12:52:35.276Z,19.10
2019-03-16T12:55:03.863Z,19.10
2019-03-16T12:57:32.691Z,19.20
2019-03-16T13:00:01.320Z,19.20
2019-03-16T13:02:30.179Z,19.60
2019-03-16T13:04:58.814Z,19.80
2019-03-16T13:07:27.454Z,19.90
2019-03-16T13:09:55.877Z,20.00
2019-03-16T13:12:25.590Z,19.60
2019-03-16T13:14:53.982Z,19.20
2019-03-16T13:17:22.495Z,18.60
2019-03-16T13:19:51.036Z,18.30
2019-03-16T13:22:19.948Z,18.50
2019-03-16T13:24:48.586Z,18.90
2019-03-16T13:27:17.187Z,19.10
2019-03-16T13:29:45.598Z,19.20
2019-03-16T13:32:14.200Z,19.40
2019-03-16T13:34:43.134Z,19.40
2019-03-16T13:37:11.747Z,19.40
2019-03-16T13:39:40.830Z,19.30
2019-03-16T13:42:09.274Z,19.50
2019-03-16T13:44:38.061Z,18.90
2019-03-16T13:47:26.009Z,18.70
2019-03-16T13:49:56.607Z,18.50
2019-03-16T13:52:25.326Z,18.40
2019-03-16T13:54:54.177Z,18.40
2019-03-16T13:57:25.212Z,18.40
2019-03-16T13:59:55.455Z,18.50
2019-03-16T14:02:23.960Z,18.50
2019-03-16T14:04:54.402Z,18.30
2019-03-16T14:07:23.406Z,18.30
2019-03-16T14:09:53.424Z,18.10
2019-03-16T14:12:22.116Z,17.90
2019-03-16T14:14:51.201Z,18.00
2019-03-16T14:17:20.132Z,18.30
2019-03-16T14:19:48.763Z,18.40
2019-03-16T14:22:17.721Z,18.50
2019-03-16T14:24:46.462Z,18.40
2019-03-16T14:27:16.295Z,18.30
2019-03-16T14:29:45.378Z,17.90
2019-03-16T14:32:14.375Z,17.70
2019-03-16T14:34:43.301Z,17.70
2019-03-16T14:37:12.043Z,17.50
2019-03-16T14:39:42.530Z,17.20
2019-03-16T14:42:13.146Z,17.20
2019-03-16T14:44:43.370Z,17.10
2019-03-16T14:47:12.625Z,17.20
2019-03-16T14:49:43.266Z,17.10
2019-03-16T14:52:11.828Z,17.00
2019-03-16T14:54:40.714Z,17.00
2019-03-16T14:57:09.436Z,17.00
2019-03-16T14:59:37.994Z,16.80
2019-03-16T15:02:06.669Z,16.80
2019-03-16T15:04:35.268Z,16.60
2019-03-16T15:07:03.925Z,16.60
2019-03-16T15:09:32.494Z,16.40
2019-03-16T15:12:02.075Z,16.40
2019-03-16T15:14:30.619Z,16.40
2019-03-16T15:16:59.612Z,16.40
2019-03-16T15:19:31.476Z,16.40
2019-03-16T15:22:01.607Z,16.40
2019-03-16T15:24:30.572Z,16.30
2019-03-16T15:26:59.650Z,16.10
2019-03-16T15:29:31.313Z,16.10
2019-03-16T15:31:59.356Z,15.90
2019-03-16T15:34:28.265Z,15.80
2019-03-16T15:36:56.864Z,15.70
2019-03-16T15:39:25.788Z,15.80
2019-03-16T15:41:54.619Z,15.80
2019-03-16T15:44:23.667Z,15.70
2019-03-16T15:46:52.203Z,15.70
2019-03-16T15:49:21.196Z,15.60
2019-03-16T15:51:49.901Z,15.50
2019-03-16T15:54:18.643Z,15.40
2019-03-16T15:56:48.293Z,15.30
2019-03-16T15:59:17.106Z,15.10
2019-03-16T16:01:45.664Z,15.10
2019-03-16T16:04:14.589Z,15.20
2019-03-16T16:06:43.164Z,15.30
2019-03-16T16:09:11.700Z,15.20
2019-03-16T16:11:42.187Z,15.30
2019-03-16T16:14:11.760Z,15.30
2019-03-16T16:16:40.397Z,15.30
2019-03-16T16:19:09.191Z,15.00
2019-03-16T16:21:37.612Z,14.70
2019-03-16T16:24:06.618Z,14.60
2019-03-16T16:26:35.388Z,14.40
2019-03-16T16:29:04.356Z,14.20
2019-03-16T16:31:33.617Z,14.30
2019-03-16T16:34:03.071Z,14.40
2019-03-16T16:36:32.743Z,14.40
2019-03-16T16:39:01.307Z,14.30
2019-03-16T16:41:29.826Z,14.40
2019-03-16T16:43:58.643Z,14.50
2019-03-16T16:46:28.461Z,14.40
2019-03-16T16:48:59.104Z,14.30
2019-03-16T16:51:27.842Z,14.20
2019-03-16T16:53:56.283Z,14.20
2019-03-16T16:56:26.632Z,14.10
2019-03-16T16:58:55.269Z,14.00
2019-03-16T17:01:29.627Z,14.00
2019-03-16T17:03:55.712Z,13.90
2019-03-16T17:06:24.121Z,13.80
2019-03-16T17:08:52.962Z,13.80
2019-03-16T17:11:21.694Z,13.70
2019-03-16T17:13:50.240Z,13.60
2019-03-16T17:16:18.660Z,13.50
2019-03-16T17:18:49.094Z,13.30
2019-03-16T17:21:17.669Z,13.10
2019-03-16T17:23:48.214Z,13.00
2019-03-16T17:26:16.803Z,12.90
2019-03-16T17:28:45.687Z,12.80
2019-03-16T17:31:14.318Z,12.90
2019-03-16T17:33:45.751Z,12.80
2019-03-16T17:36:14.583Z,12.70
2019-03-16T17:38:43.241Z,12.50
2019-03-16T17:41:11.855Z,12.60
2019-03-16T17:43:40.493Z,12.50
2019-03-16T17:46:09.272Z,12.50
2019-03-16T17:48:39.138Z,12.40
2019-03-16T17:51:07.759Z,12.30
2019-03-16T17:53:36.646Z,12.20
2019-03-16T17:56:07.139Z,12.10
2019-03-16T17:58:35.792Z,12.00
2019-03-16T18:01:04.451Z,11.90
2019-03-16T18:03:32.874Z,11.90
2019-03-16T18:06:01.459Z,11.80
2019-03-16T18:08:30.173Z,11.80
2019-03-16T18:10:58.571Z,11.80
2019-03-16T18:13:32.762Z,11.70
2019-03-16T18:16:01.371Z,11.60
2019-03-16T18:18:30.155Z,11.50
2019-03-16T18:20:58.767Z,11.40
2019-03-16T18:23:27.576Z,11.30
2019-03-16T18:25:56.064Z,11.30
2019-03-16T18:28:24.730Z,11.30
2019-03-16T18:30:54.455Z,11.30
2019-03-16T18:33:23.285Z,11.20
2019-03-16T18:35:52.033Z,11.10
2019-03-16T18:38:20.731Z,11.10
2019-03-16T18:40:49.421Z,11.00
2019-03-16T18:43:19.766Z,11.00
2019-03-16T18:45:48.425Z,11.00
2019-03-16T18:48:17.323Z,10.90
2019-03-16T18:50:47.555Z,10.90
2019-03-16T18:53:16.261Z,10.90
2019-03-16T18:55:44.948Z,10.80
2019-03-16T18:58:15.503Z,10.70
2019-03-16T19:00:45.261Z,10.60
2019-03-16T19:03:14.119Z,10.60
2019-03-16T19:05:42.835Z,10.60
2019-03-16T19:08:11.409Z,10.50
2019-03-16T19:10:40.385Z,10.50
2019-03-16T19:13:08.901Z,10.40
2019-03-16T19:15:37.693Z,10.40
2019-03-16T19:18:06.413Z,10.40
2019-03-16T19:20:35.079Z,10.40
2019-03-16T19:23:05.703Z,10.40
2019-03-16T19:25:36.319Z,10.40
2019-03-16T19:28:05.042Z,10.40
2019-03-16T19:30:33.834Z,10.40
2019-03-16T19:33:02.333Z,10.40
2019-03-16T19:35:30.793Z,10.30
2019-03-16T19:37:59.562Z,10.20
2019-03-16T19:40:28.152Z,10.10
2019-03-16T19:42:57.376Z,10.10
2019-03-16T19:45:27.808Z,10.10
2019-03-16T19:47:56.854Z,10.10
2019-03-16T19:50:25.622Z,10.10
2019-03-16T19:52:55.676Z,10.10
2019-03-16T19:55:24.335Z,10.00
2019-03-16T19:57:52.882Z,9.90
2019-03-16T20:00:23.287Z,9.80
2019-03-16T20:02:52.223Z,9.80
2019-03-16T20:05:22.121Z,9.80
2019-03-16T20:07:51.115Z,9.80
2019-03-16T20:10:21.090Z,9.80
2019-03-16T20:12:52.923Z,9.80
2019-03-16T20:15:23.061Z,9.70
2019-03-16T20:17:51.987Z,9.70
2019-03-16T20:20:20.718Z,9.70
2019-03-16T20:22:50.002Z,9.60
2019-03-16T20:25:18.842Z,9.60
2019-03-16T20:27:48.076Z,9.60
2019-03-16T20:30:26.593Z,9.70
2019-03-16T20:33:02.645Z,9.50
2019-03-16T20:35:19.971Z,9.40
2019-03-16T20:37:48.501Z,9.40
2019-03-16T20:40:18.528Z,9.30
2019-03-16T20:42:50.940Z,9.40
2019-03-16T20:45:20.695Z,9.40
2019-03-16T20:47:49.617Z,9.30
2019-03-16T20:50:20.116Z,9.30
2019-03-16T20:52:48.850Z,9.30
2019-03-16T20:55:17.467Z,9.30
2019-03-16T20:57:46.146Z,9.30
2019-03-16T21:00:15.722Z,9.20
2019-03-16T21:02:44.561Z,9.30
2019-03-16T21:05:13.708Z,9.20
2019-03-16T21:07:42.367Z,9.30
2019-03-16T21:10:12.265Z,9.20
2019-03-16T21:12:42.791Z,9.20
2019-03-16T21:15:12.040Z,9.20
2019-03-16T21:17:41.161Z,9.10
2019-03-16T21:20:11.196Z,9.10
2019-03-16T21:22:39.776Z,9.10
2019-03-16T21:25:09.361Z,9.20
2019-03-16T21:27:38.033Z,9.10
2019-03-16T21:30:09.636Z,9.10
2019-03-16T21:32:38.905Z,9.00
2019-03-16T21:35:07.837Z,8.90
2019-03-16T21:37:36.578Z,9.00
2019-03-16T21:40:05.696Z,9.00
2019-03-16T21:42:34.515Z,9.00
2019-03-16T21:45:03.751Z,9.00
2019-03-16T21:47:32.389Z,8.90
2019-03-16T21:50:01.153Z,8.90
2019-03-16T21:52:29.889Z,8.90
2019-03-16T21:55:00.362Z,8.90
2019-03-16T21:57:29.661Z,8.90
2019-03-16T21:59:58.703Z,8.90
2019-03-16T22:02:27.395Z,8.80
2019-03-16T22:04:55.827Z,8.70
2019-03-16T22:07:24.428Z,8.70
2019-03-16T22:09:52.818Z,8.70
2019-03-16T22:12:21.358Z,8.70
2019-03-16T22:14:49.850Z,8.80
2019-03-16T22:17:18.389Z,8.70
2019-03-16T22:19:46.934Z,8.60
2019-03-16T22:22:15.466Z,8.50
2019-03-16T22:24:43.870Z,8.60
2019-03-16T22:27:12.463Z,8.50
2019-03-16T22:29:40.890Z,8.60
2019-03-16T22:32:09.567Z,8.50
2019-03-16T22:34:38.347Z,8.50
2019-03-16T22:37:08.329Z,8.50
2019-03-16T22:39:36.839Z,8.50
2019-03-16T22:42:05.577Z,8.50
2019-03-16T22:44:34.215Z,8.60
2019-03-16T22:47:03.121Z,8.50
2019-03-16T22:49:31.542Z,8.50
2019-03-16T22:52:01.864Z,8.60
2019-03-16T22:54:30.467Z,8.50
2019-03-16T22:56:59.416Z,8.50
2019-03-16T22:59:28.264Z,8.50
2019-03-16T23:01:57.061Z,8.40
2019-03-16T23:04:34.922Z,8.40
2019-03-16T23:07:13.479Z,8.30
2019-03-16T23:09:53.115Z,8.30
2019-03-16T23:12:32.400Z,8.30
2019-03-16T23:15:11.578Z,8.30
2019-03-16T23:17:42.300Z,8.30
2019-03-16T23:20:11.879Z,8.30
2019-03-16T23:22:40.442Z,8.30
2019-03-16T23:25:09.180Z,8.20
2019-03-16T23:27:38.011Z,8.20
2019-03-16T23:30:08.307Z,8.10
2019-03-16T23:32:38.262Z,8.10
2019-03-16T23:35:07.501Z,8.00
2019-03-16T23:37:36.408Z,8.00
2019-03-16T23:40:07.296Z,8.10
2019-03-16T23:42:36.003Z,8.00
2019-03-16T23:45:04.988Z,7.90
2019-03-16T23:47:33.672Z,8.00
2019-03-16T23:50:02.363Z,8.00
2019-03-16T23:52:30.972Z,7.80
2019-03-16T23:54:59.793Z,7.70
2019-03-16T23:57:31.732Z,7.60
